x

Smith Island, Wa (sisw1) Weather Station

11:00 - Mon 22nd May 2017 All times are PDT. -7 hours from GMT.

  • Wind
    5mph, 6mph gusts
  • Luft Temp 57°f
  • Sea Pressure 1022.5mb
  • Smith Island, Wa
  • Smith Island, Wa

More Historic Weather Station data

Upgrade to MSW Pro to gain access to the past 30 days of data for over 8000 Wavebouys and Weather Stations around the globe.

Join Pro

Comparision Forecast

View Surf forecast
   
Mo 05/22 11:00 5 6 mph 1022.5mb 57f
10:00 3 5 mph 1022.4mb 56f
9:00 5 5 mph 1022.5mb 53f
8:00  -  0 mph 1022.2mb 54f
7:00 6 6 mph 1022.3mb 53f
6:00 3 3 mph 1022.1mb 51f
5:00 7 7 mph 1021.9mb 51f
4:00 5 5 mph 1022.2mb 51f
3:00 3 5 mph 1022.3mb 51f
2:00 2 2 mph 1022mb 54f
1:00 2 3 mph 1022.3mb 53f
12:00 2 5 mph 1022.1mb 51f
So 05/21 11:00 10 10 mph 1022.4mb 52f
10:00 9 10 mph 1022.2mb 52f
9:00 10 11 mph 1021.9mb 54f
8:00 11 13 mph 1022mb 55f
7:00 9 10 mph 1022.1mb 55f
6:00 8 9 mph 1022.6mb 56f
5:00 6 7 mph 1022.8mb 60f
4:00 5 6 mph 1023.3mb 60f
3:00 7 7 mph 1023.8mb 58f
2:00 7 8 mph 1024.2mb 58f
1:00 7 8 mph 1024.6mb 55f
12:00 5 6 mph 1024.9mb 53f
11:00 5 6 mph 1025.1mb 51f
10:00  -  1 mph 1025.2mb 51f
9:00 3 5 mph 1025mb 49f
8:00 3 6 mph 1024.7mb 49f
7:00 9 10 mph 1024.5mb 48f
6:00 5 8 mph 1024.4mb 48f
5:00 7 10 mph 1024.3mb 48f
4:00 13 14 mph 1024mb 49f
3:00 9 10 mph 1024mb 49f
2:00 7 9 mph 1024.1mb 49f
1:00 6 7 mph 1023.8mb 49f
12:00 13 18 mph 1022.9mb 49f
Sa 05/20 11:00 20 26 mph 1022.5mb 49f
10:00 16 22 mph 1022.3mb 50f
9:00 15 20 mph 1022.1mb 50f
8:00 15 21 mph 1021.9mb 50f
7:00 11 16 mph 1022mb 52f
6:00 9 13 mph 1022.1mb 55f
5:00 11 14 mph 1022.4mb 55f
4:00 14 15 mph 1022.5mb 54f
3:00 11 16 mph 1022.7mb 55f
2:00 9 11 mph 1022.7mb 56f
1:00 7 10 mph 1022.8mb 56f
12:00 8 11 mph 1023mb 55f
11:00 8 10 mph 1022.8mb 54f
10:00 10 13 mph 1022.8mb 52f
9:00 10 14 mph 1022.6mb 52f
8:00 9 13 mph 1022mb 52f
7:00 10 15 mph 1021.7mb 51f
6:00 13 15 mph 1021mb 51f
5:00 11 17 mph 1020.5mb 50f
4:00 13 18 mph 1020.3mb 51f
3:00 11 13 mph 1020.1mb 51f
2:00 11 14 mph 1019.8mb 51f
1:00 14 15 mph 1019.7mb 52f
12:00 9 13 mph 1019.8mb 51f
Fr 05/19 11:00 15 17 mph 1019.5mb 51f
10:00 11 16 mph 1019.5mb 52f
9:00 8 11 mph 1019.4mb 52f
8:00 11 17 mph 1019.3mb 52f
7:00 10 15 mph 1019.3mb 53f
6:00 10 15 mph 1019.5mb 54f
5:00 9 11 mph 1019.7mb 55f
4:00 8 9 mph 1019.9mb 55f
3:00 6 7 mph 1020.1mb 56f
2:00 2 3 mph 1020.2mb 57f
1:00 3 5 mph 1020.5mb 56f
12:00 2 3 mph 1020.7mb 53f
11:00 2 3 mph 1021mb 53f
10:00 5 6 mph 1021.1mb 53f
9:00 5 5 mph 1021mb 52f
8:00 3 3 mph 1020.8mb 52f
7:00 5 5 mph 1020.3mb 51f
6:00 3 3 mph 1020.1mb 50f
5:00 2 2 mph 1020.1mb 49f
4:00 3 5 mph 1020.1mb 50f
3:00 5 6 mph 1020.3mb 50f
2:00 6 7 mph 1020.6mb 50f
1:00 6 7 mph 1020.5mb 50f
12:00 7 9 mph 1020.5mb 50f
Do 05/18 11:00 9 13 mph 1020.3mb 51f
10:00 8 8 mph 1020.3mb 51f
9:00 10 11 mph 1019.9mb 51f
8:00 5 5 mph 1019.9mb 53f